CSCL Dalian — VRBH4 — position and weather

sailwx.info

Track history (hours):
 
Tides and Currents Weather Stations Pressure Air Temp Water Temp Dewpoint Dewpoint Depression Visibility Wind Speed Wind Dir Waves Ship Positions

CSCL Dalian

Last reported at 2017-Aug-15 07:41 UTC. Time now 2017-Aug-16 19:46 UTC.
Position N 36°10' E 014°49'.

Length 259.8 m; ; draft 11 m.

Type: Cargo ship. MMSI: 477014600.

Date/timePositionNaut miles runAvg speedWind from/ knotsBaromVisibWave heightAir tempDewpointWater temp
2017-Aug-15 07:41N 36°10' E 014°49'316.7
2017-Aug-15 07:30N 36°11' E 014°45'816.6
2017-Aug-15 07:00N 36°14' E 014°35'816.8
2017-Aug-15 06:30N 36°17' E 014°25'816.8
2017-Aug-15 06:00N 36°20' E 014°16'816.8
2017-Aug-15 05:30N 36°23' E 014°06'817.0
2017-Aug-15 05:00N 36°26' E 013°57'917.0
2017-Aug-15 04:30N 36°30' E 013°47'817.0
2017-Aug-15 04:00N 36°33' E 013°37'816.7
2017-Aug-15 03:30N 36°36' E 013°27'816.6
2017-Aug-15 03:00N 36°39' E 013°18'816.4
2017-Aug-15 02:30N 36°42' E 013°08'816.0
2017-Aug-15 02:00N 36°46' E 012°60'816.2
2017-Aug-15 01:30N 36°50' E 012°51'815.9
2017-Aug-15 01:00N 36°52' E 012°41'815.9
2017-Aug-15 00:30N 36°55' E 012°32'816.1
2017-Aug-15 00:00N 36°56' E 012°22'816.0
2017-Aug-14 23:30N 36°59' E 012°12'816.0
2017-Aug-14 22:59N 37°02' E 012°03'815.9
2017-Aug-14 22:30N 37°05' E 011°54'816.0
2017-Aug-14 22:00N 37°09' E 011°45'816.0
2017-Aug-14 21:29N 37°13' E 011°36'2116.0
2017-Aug-14 20:12N 37°22' E 011°13'316.2
2017-Aug-14 20:00N 37°23' E 011°09'815.9
2017-Aug-14 19:30N 37°25' E 010°59'815.9
2017-Aug-14 19:00N 37°28' E 010°50'816.1
2017-Aug-14 18:30N 37°30' E 010°40'815.7
2017-Aug-14 18:00N 37°31' E 010°30'815.9
2017-Aug-14 17:30N 37°33' E 010°20'815.7
2017-Aug-14 17:00N 37°34' E 010°10'815.9
2017-Aug-14 16:30N 37°34' E 010°00'815.9
2017-Aug-14 16:00N 37°35' E 009°51'816.0
2017-Aug-14 15:30N 37°36' E 009°41'815.9
2017-Aug-14 15:00N 37°38' E 009°31'815.9
2017-Aug-14 14:30N 37°39' E 009°21'815.7
2017-Aug-14 14:00N 37°41' E 009°11'1715.7
2017-Aug-14 12:55N 37°43' E 008°50'715.8
2017-Aug-14 12:30N 37°43' E 008°42'1015.6
2017-Aug-14 11:51N 37°43' E 008°29'615.4
2017-Aug-14 11:26N 37°42' E 008°21'1215.6
2017-Aug-14 10:42N 37°42' E 008°06'515.6
2017-Aug-14 10:21N 37°41' E 007°59'915.8
2017-Aug-14 09:47N 37°40' E 007°48'1216.0
2017-Aug-14 09:00N 37°39' E 007°32'816.1
2017-Aug-14 08:30N 37°39' E 007°22'1316.2
2017-Aug-14 07:42N 37°38' E 007°06'11515.9
2017-Aug-14 00:28N 37°27' E 004°42'2215.9
2017-Aug-13 23:04N 37°23' E 004°14'115.3
2017-Aug-13 22:59N 37°23' E 004°13'1215.7
2017-Aug-13 22:14N 37°20' E 003°58'415.5
2017-Aug-13 21:59N 37°19' E 003°54'715.3
2017-Aug-13 21:30N 37°18' E 003°44'815.5
2017-Aug-13 21:00N 37°17' E 003°35'5015.4
2017-Aug-13 17:45N 37°07' E 002°33'415.1
2017-Aug-13 17:28N 37°05' E 002°28'715.2
2017-Aug-13 16:59N 37°04' E 002°19'  
2017-Aug-10 11:28N 36°11' W 005°06'510.7
2017-Aug-10 10:58N 36°08' W 005°12'510.7
2017-Aug-10 10:30N 36°06' W 005°18'5 9.7
2017-Aug-10 10:00N 36°06' W 005°24'3 6.4
2017-Aug-10 09:29N 36°09' W 005°26'0 0.0
2017-Aug-10 07:38N 36°09' W 005°26'0 0.1
2017-Aug-10 07:30N 36°09' W 005°26'0 0.0
2017-Aug-10 06:49N 36°09' W 005°26'0 0.0
2017-Aug-10 06:30N 36°09' W 005°26'0 0.0
2017-Aug-10 05:48N 36°09' W 005°26'0 0.0
2017-Aug-10 05:30N 36°09' W 005°26'0 0.0
2017-Aug-10 05:00N 36°09' W 005°26'0 0.0
2017-Aug-10 04:30N 36°09' W 005°26'0 0.0
2017-Aug-10 04:00N 36°09' W 005°26'0 0.0
2017-Aug-10 03:28N 36°09' W 005°26'0 0.0
2017-Aug-10 03:00N 36°09' W 005°26'0 0.0
2017-Aug-10 01:18N 36°09' W 005°26'0 0.0
2017-Aug-10 01:01N 36°09' W 005°26'0 0.0
2017-Aug-10 00:31N 36°09' W 005°26'0 0.0
2017-Aug-10 00:00N 36°09' W 005°26'0 0.0
2017-Aug-09 23:30N 36°09' W 005°26'2 2.9
2017-Aug-09 22:55N 36°09' W 005°24'1 3.1
2017-Aug-09 22:30N 36°07' W 005°24'510.5
2017-Aug-09 22:00N 36°02' W 005°23'611.3
2017-Aug-09 21:30N 35°58' W 005°27'714.3
2017-Aug-09 21:00N 35°56' W 005°35'1013.8
2017-Aug-09 20:18N 35°54' W 005°47'413.2
2017-Aug-09 19:59N 35°55' W 005°52'713.4
2017-Aug-09 19:29N 35°55' W 006°01'714.0
2017-Aug-09 19:00N 35°55' W 006°09'813.9
2017-Aug-09 18:26N 35°54' W 006°19'913.6
2017-Aug-09 17:44N 35°57' W 006°30'3113.8
2017-Aug-09 15:29N 36°05' W 007°07'714.0
2017-Aug-09 15:00N 36°07' W 007°15'816.1
2017-Aug-09 14:29N 36°09' W 007°25'918.6
2017-Aug-09 14:00N 36°11' W 007°36'1118.4
2017-Aug-09 13:24N 36°14' W 007°49'1018.4
2017-Aug-09 12:51N 36°17' W 008°01'4718.1
2017-Aug-09 10:14N 36°30' W 008°58'518.3
2017-Aug-09 09:58N 36°31' W 009°04'7416.6
2017-Aug-09 05:32N 37°37' W 009°46'2718.2
2017-Aug-09 04:03N 38°03' W 009°52'218.1
2017-Aug-09 03:57N 38°05' W 009°53'1317.7
2017-Aug-09 03:13N 38°17' W 009°58'418.4
2017-Aug-09 03:00N 38°21' W 009°59'918.3
2017-Aug-09 02:30N 38°30' W 010°03'918.2
2017-Aug-09 02:00N 38°39' W 010°05'918.3
2017-Aug-09 01:30N 38°48' W 010°06'918.2
2017-Aug-09 01:00N 38°57' W 010°06'918.1
2017-Aug-09 00:30N 39°06' W 010°06'918.4
2017-Aug-09 00:00N 39°15' W 010°06'918.7
2017-Aug-08 23:30N 39°24' W 010°05'60816.8
2017-Aug-07 11:23N 49°01' W 005°35'614.8
2017-Aug-07 10:59N 49°04' W 005°27'4914.9
2017-Aug-07 07:41N 49°28' W 004°21'413.8
2017-Aug-07 07:25N 49°30' W 004°16'713.2
2017-Aug-07 06:54N 49°33' W 004°07'512.9
2017-Aug-07 06:30N 49°36' W 004°00'612.6
2017-Aug-07 06:00N 49°39' W 003°52'612.5
2017-Aug-07 05:30N 49°42' W 003°43'612.4
2017-Aug-07 05:00N 49°45' W 003°35'612.7
2017-Aug-07 04:30N 49°48' W 003°26'713.1
2017-Aug-07 04:00N 49°51' W 003°18'713.6
2017-Aug-07 03:30N 49°55' W 003°08'714.1
2017-Aug-07 03:01N 49°57' W 002°58'714.8
2017-Aug-07 02:31N 49°59' W 002°47'2716.0
2017-Aug-07 00:48N 50°08' W 002°07'516.4
2017-Aug-07 00:30N 50°10' W 001°60'816.1
2017-Aug-07 00:00N 50°13' W 001°48'815.4
2017-Aug-06 23:30N 50°15' W 001°36'714.7
2017-Aug-06 23:00N 50°16' W 001°25'813.9
2017-Aug-06 22:26N 50°19' W 001°13'612.5
2017-Aug-06 21:59N 50°19' W 001°05'1012.0
2017-Aug-06 21:09N 50°22' W 000°49'211.4
2017-Aug-06 21:00N 50°22' W 000°47'611.2
2017-Aug-06 20:30N 50°24' W 000°38'611.3
2017-Aug-06 20:00N 50°25' W 000°30'611.4
2017-Aug-06 19:29N 50°27' W 000°21'612.0
2017-Aug-06 19:00N 50°28' W 000°12'612.5
2017-Aug-06 18:30N 50°30' W 000°03'712.9
2017-Aug-06 18:00N 50°31' E 000°07'3714.2
2017-Aug-06 15:21N 50°48' E 001°00'514.2
2017-Aug-06 14:59N 50°51' E 001°07'713.7
2017-Aug-06 14:30N 50°54' E 001°16'713.0
2017-Aug-06 14:00N 50°59' E 001°23'612.5
2017-Aug-06 13:30N 51°03' E 001°30'611.7
2017-Aug-06 13:00N 51°08' E 001°37'611.6
2017-Aug-06 12:30N 51°12' E 001°43'611.7
2017-Aug-06 12:00N 51°17' E 001°47'612.2
2017-Aug-06 11:30N 51°22' E 001°52'713.1
2017-Aug-06 11:01N 51°28' E 001°58'713.9
2017-Aug-06 10:30N 51°33' E 002°05'714.2
2017-Aug-06 10:00N 51°38' E 002°13'714.6
2017-Aug-06 09:30N 51°43' E 002°21'10814.2
2017-Aug-06 01:52N 53°06' E 004°16'512.9
2017-Aug-06 01:29N 53°09' E 004°22'713.4
2017-Aug-06 00:58N 53°16' E 004°27'914.3
2017-Aug-06 00:21N 53°24' E 004°32'1114.4
2017-Aug-05 23:37N 53°34' E 004°39'314.4
2017-Aug-05 23:24N 53°36' E 004°41'10413.7
2017-Aug-05 15:52N 55°07' E 006°05'514.0
2017-Aug-05 15:30N 55°12' E 006°10'713.9
2017-Aug-05 14:59N 55°18' E 006°15'713.7
2017-Aug-05 14:29N 55°24' E 006°21'713.8
2017-Aug-05 14:01N 55°30' E 006°27'1113.7
2017-Aug-05 13:14N 55°39' E 006°36'  
Track history (hours):
 
Tides and Currents Weather Stations Pressure Air Temp Water Temp Dewpoint Dewpoint Depression Visibility Wind Speed Wind Dir Waves Ship Positions

CSCL Dalian

Last reported at 2017-Aug-15 07:41 UTC. Time now 2017-Aug-16 19:46 UTC.
Position N 36°10' E 014°49'.

Length 259.8 m; ; draft 11 m.

Type: Cargo ship. MMSI: 477014600.

Date/timePositionNaut miles runAvg speedWind from/ knotsBaromVisibWave heightAir tempDewpointWater temp
2017-Aug-15 07:41N 36°10' E 014°49'316.7
2017-Aug-15 07:30N 36°11' E 014°45'816.6
2017-Aug-15 07:00N 36°14' E 014°35'816.8
2017-Aug-15 06:30N 36°17' E 014°25'816.8
2017-Aug-15 06:00N 36°20' E 014°16'816.8
2017-Aug-15 05:30N 36°23' E 014°06'817.0
2017-Aug-15 05:00N 36°26' E 013°57'917.0
2017-Aug-15 04:30N 36°30' E 013°47'817.0
2017-Aug-15 04:00N 36°33' E 013°37'816.7
2017-Aug-15 03:30N 36°36' E 013°27'816.6
2017-Aug-15 03:00N 36°39' E 013°18'816.4
2017-Aug-15 02:30N 36°42' E 013°08'816.0
2017-Aug-15 02:00N 36°46' E 012°60'816.2
2017-Aug-15 01:30N 36°50' E 012°51'815.9
2017-Aug-15 01:00N 36°52' E 012°41'815.9
2017-Aug-15 00:30N 36°55' E 012°32'816.1
2017-Aug-15 00:00N 36°56' E 012°22'816.0
2017-Aug-14 23:30N 36°59' E 012°12'816.0
2017-Aug-14 22:59N 37°02' E 012°03'815.9
2017-Aug-14 22:30N 37°05' E 011°54'816.0
2017-Aug-14 22:00N 37°09' E 011°45'816.0
2017-Aug-14 21:29N 37°13' E 011°36'2116.0
2017-Aug-14 20:12N 37°22' E 011°13'316.2
2017-Aug-14 20:00N 37°23' E 011°09'815.9
2017-Aug-14 19:30N 37°25' E 010°59'815.9
2017-Aug-14 19:00N 37°28' E 010°50'816.1
2017-Aug-14 18:30N 37°30' E 010°40'815.7
2017-Aug-14 18:00N 37°31' E 010°30'815.9
2017-Aug-14 17:30N 37°33' E 010°20'815.7
2017-Aug-14 17:00N 37°34' E 010°10'815.9
2017-Aug-14 16:30N 37°34' E 010°00'815.9
2017-Aug-14 16:00N 37°35' E 009°51'816.0
2017-Aug-14 15:30N 37°36' E 009°41'815.9
2017-Aug-14 15:00N 37°38' E 009°31'815.9
2017-Aug-14 14:30N 37°39' E 009°21'815.7
2017-Aug-14 14:00N 37°41' E 009°11'1715.7
2017-Aug-14 12:55N 37°43' E 008°50'715.8
2017-Aug-14 12:30N 37°43' E 008°42'1015.6
2017-Aug-14 11:51N 37°43' E 008°29'615.4
2017-Aug-14 11:26N 37°42' E 008°21'1215.6
2017-Aug-14 10:42N 37°42' E 008°06'515.6
2017-Aug-14 10:21N 37°41' E 007°59'915.8
2017-Aug-14 09:47N 37°40' E 007°48'1216.0
2017-Aug-14 09:00N 37°39' E 007°32'816.1
2017-Aug-14 08:30N 37°39' E 007°22'1316.2
2017-Aug-14 07:42N 37°38' E 007°06'11515.9
2017-Aug-14 00:28N 37°27' E 004°42'2215.9
2017-Aug-13 23:04N 37°23' E 004°14'115.3
2017-Aug-13 22:59N 37°23' E 004°13'1215.7
2017-Aug-13 22:14N 37°20' E 003°58'415.5
2017-Aug-13 21:59N 37°19' E 003°54'715.3
2017-Aug-13 21:30N 37°18' E 003°44'815.5
2017-Aug-13 21:00N 37°17' E 003°35'5015.4
2017-Aug-13 17:45N 37°07' E 002°33'415.1
2017-Aug-13 17:28N 37°05' E 002°28'715.2
2017-Aug-13 16:59N 37°04' E 002°19'  
2017-Aug-10 11:28N 36°11' W 005°06'510.7
2017-Aug-10 10:58N 36°08' W 005°12'510.7
2017-Aug-10 10:30N 36°06' W 005°18'5 9.7
2017-Aug-10 10:00N 36°06' W 005°24'3 6.4
2017-Aug-10 09:29N 36°09' W 005°26'0 0.0
2017-Aug-10 07:38N 36°09' W 005°26'0 0.1
2017-Aug-10 07:30N 36°09' W 005°26'0 0.0
2017-Aug-10 06:49N 36°09' W 005°26'0 0.0
2017-Aug-10 06:30N 36°09' W 005°26'0 0.0
2017-Aug-10 05:48N 36°09' W 005°26'0 0.0
2017-Aug-10 05:30N 36°09' W 005°26'0 0.0
2017-Aug-10 05:00N 36°09' W 005°26'0 0.0
2017-Aug-10 04:30N 36°09' W 005°26'0 0.0
2017-Aug-10 04:00N 36°09' W 005°26'0 0.0
2017-Aug-10 03:28N 36°09' W 005°26'0 0.0
2017-Aug-10 03:00N 36°09' W 005°26'0 0.0
2017-Aug-10 01:18N 36°09' W 005°26'0 0.0
2017-Aug-10 01:01N 36°09' W 005°26'0 0.0
2017-Aug-10 00:31N 36°09' W 005°26'0 0.0
2017-Aug-10 00:00N 36°09' W 005°26'0 0.0
2017-Aug-09 23:30N 36°09' W 005°26'2 2.9
2017-Aug-09 22:55N 36°09' W 005°24'1 3.1
2017-Aug-09 22:30N 36°07' W 005°24'510.5
2017-Aug-09 22:00N 36°02' W 005°23'611.3
2017-Aug-09 21:30N 35°58' W 005°27'714.3
2017-Aug-09 21:00N 35°56' W 005°35'1013.8
2017-Aug-09 20:18N 35°54' W 005°47'413.2
2017-Aug-09 19:59N 35°55' W 005°52'713.4
2017-Aug-09 19:29N 35°55' W 006°01'714.0
2017-Aug-09 19:00N 35°55' W 006°09'813.9
2017-Aug-09 18:26N 35°54' W 006°19'913.6
2017-Aug-09 17:44N 35°57' W 006°30'3113.8
2017-Aug-09 15:29N 36°05' W 007°07'714.0
2017-Aug-09 15:00N 36°07' W 007°15'816.1
2017-Aug-09 14:29N 36°09' W 007°25'918.6
2017-Aug-09 14:00N 36°11' W 007°36'1118.4
2017-Aug-09 13:24N 36°14' W 007°49'1018.4
2017-Aug-09 12:51N 36°17' W 008°01'4718.1
2017-Aug-09 10:14N 36°30' W 008°58'518.3
2017-Aug-09 09:58N 36°31' W 009°04'7416.6
2017-Aug-09 05:32N 37°37' W 009°46'2718.2
2017-Aug-09 04:03N 38°03' W 009°52'218.1
2017-Aug-09 03:57N 38°05' W 009°53'1317.7
2017-Aug-09 03:13N 38°17' W 009°58'418.4
2017-Aug-09 03:00N 38°21' W 009°59'918.3
2017-Aug-09 02:30N 38°30' W 010°03'918.2
2017-Aug-09 02:00N 38°39' W 010°05'918.3
2017-Aug-09 01:30N 38°48' W 010°06'918.2
2017-Aug-09 01:00N 38°57' W 010°06'918.1
2017-Aug-09 00:30N 39°06' W 010°06'918.4
2017-Aug-09 00:00N 39°15' W 010°06'918.7
2017-Aug-08 23:30N 39°24' W 010°05'60816.8
2017-Aug-07 11:23N 49°01' W 005°35'614.8
2017-Aug-07 10:59N 49°04' W 005°27'4914.9
2017-Aug-07 07:41N 49°28' W 004°21'413.8
2017-Aug-07 07:25N 49°30' W 004°16'713.2
2017-Aug-07 06:54N 49°33' W 004°07'512.9
2017-Aug-07 06:30N 49°36' W 004°00'612.6
2017-Aug-07 06:00N 49°39' W 003°52'612.5
2017-Aug-07 05:30N 49°42' W 003°43'612.4
2017-Aug-07 05:00N 49°45' W 003°35'612.7
2017-Aug-07 04:30N 49°48' W 003°26'713.1
2017-Aug-07 04:00N 49°51' W 003°18'713.6
2017-Aug-07 03:30N 49°55' W 003°08'714.1
2017-Aug-07 03:01N 49°57' W 002°58'714.8
2017-Aug-07 02:31N 49°59' W 002°47'2716.0
2017-Aug-07 00:48N 50°08' W 002°07'516.4
2017-Aug-07 00:30N 50°10' W 001°60'816.1
2017-Aug-07 00:00N 50°13' W 001°48'815.4
2017-Aug-06 23:30N 50°15' W 001°36'714.7
2017-Aug-06 23:00N 50°16' W 001°25'813.9
2017-Aug-06 22:26N 50°19' W 001°13'612.5
2017-Aug-06 21:59N 50°19' W 001°05'1012.0
2017-Aug-06 21:09N 50°22' W 000°49'211.4
2017-Aug-06 21:00N 50°22' W 000°47'611.2
2017-Aug-06 20:30N 50°24' W 000°38'611.3
2017-Aug-06 20:00N 50°25' W 000°30'611.4
2017-Aug-06 19:29N 50°27' W 000°21'612.0
2017-Aug-06 19:00N 50°28' W 000°12'612.5
2017-Aug-06 18:30N 50°30' W 000°03'712.9
2017-Aug-06 18:00N 50°31' E 000°07'3714.2
2017-Aug-06 15:21N 50°48' E 001°00'514.2
2017-Aug-06 14:59N 50°51' E 001°07'713.7
2017-Aug-06 14:30N 50°54' E 001°16'713.0
2017-Aug-06 14:00N 50°59' E 001°23'612.5
2017-Aug-06 13:30N 51°03' E 001°30'611.7
2017-Aug-06 13:00N 51°08' E 001°37'611.6
2017-Aug-06 12:30N 51°12' E 001°43'611.7
2017-Aug-06 12:00N 51°17' E 001°47'612.2
2017-Aug-06 11:30N 51°22' E 001°52'713.1
2017-Aug-06 11:01N 51°28' E 001°58'713.9
2017-Aug-06 10:30N 51°33' E 002°05'714.2
2017-Aug-06 10:00N 51°38' E 002°13'714.6
2017-Aug-06 09:30N 51°43' E 002°21'10814.2
2017-Aug-06 01:52N 53°06' E 004°16'512.9
2017-Aug-06 01:29N 53°09' E 004°22'713.4
2017-Aug-06 00:58N 53°16' E 004°27'914.3
2017-Aug-06 00:21N 53°24' E 004°32'1114.4
2017-Aug-05 23:37N 53°34' E 004°39'314.4
2017-Aug-05 23:24N 53°36' E 004°41'10413.7
2017-Aug-05 15:52N 55°07' E 006°05'514.0
2017-Aug-05 15:30N 55°12' E 006°10'713.9
2017-Aug-05 14:59N 55°18' E 006°15'713.7
2017-Aug-05 14:29N 55°24' E 006°21'713.8
2017-Aug-05 14:01N 55°30' E 006°27'1113.7
2017-Aug-05 13:14N 55°39' E 006°36'  

Dump ship's entire track history